createdAt,value
2023-04-28T00:00:21.234Z,0.00
2023-04-28T00:01:21.231Z,0.00
2023-04-28T00:02:21.233Z,0.00
2023-04-28T00:03:21.362Z,0.00
2023-04-28T00:04:21.910Z,0.00
2023-04-28T00:05:21.305Z,0.00
2023-04-28T00:06:21.186Z,0.00
2023-04-28T00:07:21.146Z,0.00
2023-04-28T00:08:21.135Z,0.00
2023-04-28T00:09:21.101Z,0.00
2023-04-28T00:10:21.102Z,0.00
2023-04-28T00:11:21.096Z,0.00
2023-04-28T00:12:21.088Z,0.00
2023-04-28T00:13:21.060Z,0.00
2023-04-28T00:14:21.087Z,0.00
2023-04-28T00:15:21.084Z,0.00
2023-04-28T00:16:21.107Z,0.00
2023-04-28T00:17:21.051Z,0.00
2023-04-28T00:18:21.087Z,0.00
2023-04-28T00:19:21.021Z,0.00
2023-04-28T00:20:20.986Z,0.00
2023-04-28T00:21:21.005Z,0.00
2023-04-28T00:22:20.968Z,0.00
2023-04-28T00:23:20.974Z,0.00
2023-04-28T00:24:20.954Z,0.00
2023-04-28T00:25:21.002Z,0.00
2023-04-28T00:26:20.922Z,0.00
2023-04-28T00:27:20.939Z,0.00
2023-04-28T00:28:32.811Z,0.00
2023-04-28T00:29:20.887Z,0.00
2023-04-28T00:30:20.877Z,0.00
2023-04-28T00:31:20.894Z,0.00
2023-04-28T00:32:20.958Z,0.00
2023-04-28T00:33:20.849Z,0.00
2023-04-28T00:34:20.841Z,0.00
2023-04-28T00:35:20.825Z,0.00
2023-04-28T00:36:20.821Z,0.00
2023-04-28T00:37:20.824Z,0.00
2023-04-28T00:38:20.795Z,0.00
2023-04-28T00:39:20.810Z,0.00
2023-04-28T00:40:20.793Z,0.00
2023-04-28T00:41:20.765Z,0.00
2023-04-28T00:42:20.777Z,0.00
2023-04-28T00:43:20.740Z,0.00
2023-04-28T00:44:20.736Z,0.00
2023-04-28T00:45:20.725Z,0.00
2023-04-28T00:46:20.736Z,0.00
2023-04-28T00:47:20.820Z,0.00
2023-04-28T00:48:20.697Z,0.00
2023-04-28T00:49:20.677Z,0.00
2023-04-28T00:50:20.683Z,0.00
2023-04-28T00:51:20.649Z,0.00
2023-04-28T00:52:20.678Z,0.00
2023-04-28T00:53:20.642Z,0.00
2023-04-28T00:54:20.632Z,0.00
2023-04-28T00:55:20.628Z,0.00
2023-04-28T00:56:20.619Z,0.00
2023-04-28T00:57:20.606Z,0.00
2023-04-28T00:58:20.614Z,0.00
2023-04-28T00:59:20.569Z,0.00
2023-04-28T01:00:20.558Z,0.00
2023-04-28T01:01:20.619Z,0.00
2023-04-28T01:02:20.656Z,0.00
2023-04-28T01:03:20.606Z,0.00
2023-04-28T01:04:21.313Z,0.00
2023-04-28T01:05:20.520Z,0.00
2023-04-28T01:06:20.506Z,0.00
2023-04-28T01:07:20.497Z,0.00
2023-04-28T01:08:20.504Z,0.00
2023-04-28T01:09:20.455Z,0.00
2023-04-28T01:10:20.461Z,0.00
2023-04-28T01:11:20.442Z,0.00
2023-04-28T01:12:20.462Z,0.00
2023-04-28T01:13:20.425Z,0.00
2023-04-28T01:14:20.441Z,0.00
2023-04-28T01:15:20.392Z,0.00
2023-04-28T01:16:20.427Z,0.00
2023-04-28T01:17:20.393Z,0.00
2023-04-28T01:18:20.366Z,0.00
2023-04-28T01:19:20.350Z,0.00
2023-04-28T01:20:20.350Z,0.00
2023-04-28T01:21:20.339Z,0.00
2023-04-28T01:22:20.349Z,0.00
2023-04-28T01:23:20.300Z,0.00
2023-04-28T01:24:20.323Z,0.00
2023-04-28T01:25:20.280Z,0.00
2023-04-28T01:26:20.287Z,0.00
2023-04-28T01:27:20.276Z,0.00
2023-04-28T01:28:20.261Z,0.00
2023-04-28T01:29:20.256Z,0.00
2023-04-28T01:30:20.239Z,0.00
2023-04-28T01:31:20.275Z,0.00
2023-04-28T01:32:20.392Z,0.00
2023-04-28T01:33:20.204Z,0.00
2023-04-28T01:34:20.190Z,0.00
2023-04-28T01:35:20.176Z,0.00
2023-04-28T01:36:20.193Z,0.00
2023-04-28T01:37:20.180Z,0.00
2023-04-28T01:38:20.180Z,0.00
2023-04-28T01:39:20.151Z,0.00
2023-04-28T01:40:20.128Z,0.00
2023-04-28T01:41:20.112Z,0.00
2023-04-28T01:42:20.188Z,0.00
2023-04-28T01:43:20.198Z,0.00
2023-04-28T01:44:20.149Z,0.00
2023-04-28T01:45:20.065Z,0.00
2023-04-28T01:46:20.070Z,0.00
2023-04-28T01:47:20.105Z,0.00
2023-04-28T01:48:20.033Z,0.00
2023-04-28T01:49:20.018Z,0.00
2023-04-28T01:50:20.023Z,0.00
2023-04-28T01:51:20.006Z,0.00
2023-04-28T01:52:20.020Z,0.00
2023-04-28T01:53:20.017Z,0.00
2023-04-28T01:54:20.022Z,0.00
2023-04-28T01:55:19.972Z,0.00
2023-04-28T01:56:19.953Z,0.00
2023-04-28T01:57:22.282Z,0.00
2023-04-28T01:58:19.934Z,0.00
2023-04-28T01:59:19.914Z,0.00
2023-04-28T02:00:19.909Z,0.00
2023-04-28T02:01:19.926Z,0.00
2023-04-28T02:02:20.003Z,0.00
2023-04-28T02:03:19.977Z,0.00
2023-04-28T02:04:20.044Z,0.00
2023-04-28T02:05:19.852Z,0.00
2023-04-28T02:06:19.857Z,0.00
2023-04-28T02:07:19.858Z,0.00
2023-04-28T02:08:19.819Z,0.00
2023-04-28T02:09:19.806Z,0.00
2023-04-28T02:10:19.856Z,0.00
2023-04-28T02:11:19.807Z,0.00
2023-04-28T02:12:19.791Z,0.00
2023-04-28T02:13:19.774Z,0.00
2023-04-28T02:14:19.763Z,0.00
2023-04-28T02:15:19.766Z,0.00
2023-04-28T02:16:19.788Z,0.00
2023-04-28T02:17:19.764Z,0.00
2023-04-28T02:18:19.722Z,0.00
2023-04-28T02:19:19.702Z,0.00
2023-04-28T02:20:19.727Z,0.00
2023-04-28T02:21:19.679Z,0.00
2023-04-28T02:22:19.766Z,0.00
2023-04-28T02:23:19.661Z,0.00
2023-04-28T02:24:19.656Z,0.00
2023-04-28T02:25:19.633Z,0.00
2023-04-28T02:26:19.616Z,0.00
2023-04-28T02:27:19.647Z,0.00
2023-04-28T02:28:19.591Z,0.00
2023-04-28T02:29:19.596Z,0.00
2023-04-28T02:30:19.582Z,0.00
2023-04-28T02:31:19.596Z,0.00
2023-04-28T02:32:19.662Z,0.00
2023-04-28T02:33:19.574Z,0.00
2023-04-28T02:34:19.548Z,0.00
2023-04-28T02:35:19.540Z,0.00
2023-04-28T02:36:19.525Z,0.00
2023-04-28T02:37:19.538Z,0.00
2023-04-28T02:38:19.506Z,0.00
2023-04-28T02:39:19.493Z,0.00
2023-04-28T02:40:19.490Z,0.00
2023-04-28T02:41:19.462Z,0.00
2023-04-28T02:42:19.528Z,0.00
2023-04-28T02:43:19.453Z,0.00
2023-04-28T02:44:19.429Z,0.00
2023-04-28T02:45:19.423Z,0.00
2023-04-28T02:46:19.465Z,0.00
2023-04-28T02:47:19.431Z,0.00
2023-04-28T02:48:19.401Z,0.00
2023-04-28T02:49:19.410Z,0.00
2023-04-28T02:50:19.368Z,0.00
2023-04-28T02:51:19.361Z,0.00
2023-04-28T02:52:19.429Z,0.00
2023-04-28T02:53:19.337Z,0.00
2023-04-28T02:54:19.345Z,0.00
2023-04-28T02:55:19.324Z,0.00
2023-04-28T02:56:19.295Z,0.00
2023-04-28T02:57:19.333Z,0.00
2023-04-28T02:58:19.291Z,0.00
2023-04-28T02:59:19.349Z,0.00
2023-04-28T03:00:19.303Z,0.00
2023-04-28T03:01:19.296Z,0.00
2023-04-28T03:02:19.315Z,0.00
2023-04-28T03:03:19.458Z,0.00
2023-04-28T03:04:19.497Z,0.00
2023-04-28T03:05:19.217Z,0.00
2023-04-28T03:06:19.169Z,0.00
2023-04-28T03:07:19.209Z,0.00
2023-04-28T03:08:19.184Z,0.00
2023-04-28T03:09:19.166Z,0.00
2023-04-28T03:10:19.160Z,0.00
2023-04-28T03:11:19.117Z,0.00
2023-04-28T03:12:19.125Z,0.00
2023-04-28T03:13:19.081Z,0.00
2023-04-28T03:14:19.155Z,0.00
2023-04-28T03:15:19.056Z,0.00
2023-04-28T03:16:19.090Z,0.00
2023-04-28T03:17:19.076Z,0.00
2023-04-28T03:18:19.031Z,0.00
2023-04-28T03:19:19.014Z,0.00
2023-04-28T03:20:19.009Z,0.00
2023-04-28T03:21:18.984Z,0.00
2023-04-28T03:22:19.011Z,0.00
2023-04-28T03:23:18.972Z,0.00
2023-04-28T03:24:18.950Z,0.00
2023-04-28T03:25:18.934Z,0.00
2023-04-28T03:26:18.963Z,0.00
2023-04-28T03:27:18.920Z,0.00
2023-04-28T03:28:18.895Z,0.00
2023-04-28T03:29:18.927Z,0.00
2023-04-28T03:30:18.891Z,0.00
2023-04-28T03:31:18.866Z,0.00
2023-04-28T03:32:19.071Z,0.00
2023-04-28T03:33:18.848Z,0.00
2023-04-28T03:34:18.919Z,0.00
2023-04-28T03:35:18.853Z,0.00
2023-04-28T03:36:18.824Z,0.00
2023-04-28T03:37:18.836Z,0.00
2023-04-28T03:38:18.805Z,0.00
2023-04-28T03:39:18.791Z,0.00
2023-04-28T03:40:18.766Z,0.00
2023-04-28T03:41:18.771Z,0.00
2023-04-28T03:42:18.778Z,0.00
2023-04-28T03:43:18.743Z,0.00
2023-04-28T03:44:18.727Z,0.00
2023-04-28T03:45:18.730Z,0.00
2023-04-28T03:46:18.757Z,0.00
2023-04-28T03:47:18.746Z,0.00
2023-04-28T03:48:18.698Z,0.00
2023-04-28T03:49:18.679Z,0.00
2023-04-28T03:50:18.673Z,0.00
2023-04-28T03:51:18.655Z,5.62
2023-04-28T03:52:18.725Z,5.62
2023-04-28T03:53:18.646Z,5.62
2023-04-28T03:54:18.703Z,5.62
2023-04-28T03:55:18.618Z,5.62
2023-04-28T03:56:18.621Z,5.62
2023-04-28T03:57:18.626Z,5.62
2023-04-28T03:58:18.580Z,5.62
2023-04-28T03:59:18.579Z,5.62
2023-04-28T04:00:18.584Z,5.62
2023-04-28T04:01:18.557Z,5.62
2023-04-28T04:02:18.669Z,5.62
2023-04-28T04:03:18.718Z,11.25
2023-04-28T04:04:18.815Z,11.25
2023-04-28T04:05:18.700Z,11.25
2023-04-28T04:06:18.494Z,11.25
2023-04-28T04:07:18.511Z,11.25
2023-04-28T04:08:18.482Z,11.25
2023-04-28T04:09:18.492Z,11.25
2023-04-28T04:10:18.456Z,11.25
2023-04-28T04:11:18.619Z,11.25
2023-04-28T04:12:18.453Z,11.25
2023-04-28T04:13:18.457Z,16.88
2023-04-28T04:14:18.763Z,16.88
2023-04-28T04:15:18.417Z,16.88
2023-04-28T04:16:18.431Z,16.88
2023-04-28T04:17:18.383Z,16.88
2023-04-28T04:18:18.402Z,16.88
2023-04-28T04:19:18.374Z,16.88
2023-04-28T04:20:18.382Z,16.88
2023-04-28T04:21:18.355Z,16.88
2023-04-28T04:22:18.362Z,22.50
2023-04-28T04:23:18.334Z,22.50
2023-04-28T04:24:18.598Z,22.50
2023-04-28T04:25:18.301Z,22.50
2023-04-28T04:26:18.286Z,22.50
2023-04-28T04:27:18.285Z,22.50
2023-04-28T04:28:18.258Z,22.50
2023-04-28T04:29:18.249Z,22.50
2023-04-28T04:30:18.241Z,22.50
2023-04-28T04:31:18.280Z,22.50
2023-04-28T04:32:18.242Z,22.50
2023-04-28T04:33:18.233Z,22.50
2023-04-28T04:34:18.411Z,22.50
2023-04-28T04:35:18.207Z,22.50
2023-04-28T04:36:18.169Z,22.50
2023-04-28T04:37:18.202Z,28.12
2023-04-28T04:38:18.150Z,28.12
2023-04-28T04:39:18.164Z,28.12
2023-04-28T04:40:18.126Z,28.12
2023-04-28T04:41:18.143Z,28.12
2023-04-28T04:42:25.468Z,28.12
2023-04-28T04:43:18.097Z,28.12
2023-04-28T04:44:18.355Z,28.12
2023-04-28T04:45:18.088Z,28.12
2023-04-28T04:46:18.115Z,28.12
2023-04-28T04:47:18.083Z,28.12
2023-04-28T04:48:18.044Z,28.12
2023-04-28T04:49:18.062Z,28.12
2023-04-28T04:50:18.031Z,22.50
2023-04-28T04:51:18.013Z,22.50
2023-04-28T04:52:18.078Z,22.50
2023-04-28T04:53:17.997Z,22.50
2023-04-28T04:54:17.974Z,22.50
2023-04-28T04:55:17.980Z,28.12
2023-04-28T04:56:17.959Z,28.12
2023-04-28T04:57:18.015Z,28.12
2023-04-28T04:58:17.937Z,28.12
2023-04-28T04:59:17.927Z,28.12
2023-04-28T05:00:17.918Z,28.12
2023-04-28T05:01:17.961Z,28.12
2023-04-28T05:02:17.974Z,33.75
2023-04-28T05:03:17.963Z,33.75
2023-04-28T05:04:18.221Z,33.75
2023-04-28T05:05:21.740Z,33.75
2023-04-28T05:06:17.884Z,33.75
2023-04-28T05:07:17.852Z,33.75
2023-04-28T05:08:17.837Z,33.75
2023-04-28T05:09:17.835Z,33.75
2023-04-28T05:10:17.841Z,39.38
2023-04-28T05:11:17.831Z,39.38
2023-04-28T05:12:17.806Z,39.38
2023-04-28T05:13:17.778Z,39.38
2023-04-28T05:14:18.283Z,39.38
2023-04-28T05:15:17.785Z,39.38
2023-04-28T05:16:17.812Z,39.38
2023-04-28T05:17:17.742Z,39.38
2023-04-28T05:18:17.723Z,39.38
2023-04-28T05:19:17.710Z,39.38
2023-04-28T05:20:17.716Z,39.38
2023-04-28T05:21:17.714Z,39.38
2023-04-28T05:22:17.681Z,39.38
2023-04-28T05:23:17.678Z,39.38
2023-04-28T05:24:17.996Z,39.38
2023-04-28T05:25:17.648Z,39.38
2023-04-28T05:26:17.660Z,39.38
2023-04-28T05:27:17.654Z,39.38
2023-04-28T05:28:17.993Z,39.38
2023-04-28T05:29:17.605Z,39.38
2023-04-28T05:30:17.588Z,39.38
2023-04-28T05:31:17.627Z,39.38
2023-04-28T05:32:17.587Z,39.38
2023-04-28T05:33:17.574Z,39.38
2023-04-28T05:34:17.932Z,39.38
2023-04-28T05:35:17.547Z,39.38
2023-04-28T05:36:17.552Z,39.38
2023-04-28T05:37:17.549Z,45.00
2023-04-28T05:38:17.502Z,45.00
2023-04-28T05:39:17.503Z,45.00
2023-04-28T05:40:17.491Z,45.00
2023-04-28T05:41:17.500Z,45.00
2023-04-28T05:42:17.488Z,45.00
2023-04-28T05:43:17.469Z,45.00
2023-04-28T05:44:17.824Z,45.00
2023-04-28T05:45:17.426Z,45.00
2023-04-28T05:46:29.272Z,45.00
2023-04-28T05:47:17.423Z,45.00
2023-04-28T05:48:17.395Z,45.00
2023-04-28T05:49:17.467Z,45.00
2023-04-28T05:50:17.367Z,45.00
2023-04-28T05:51:17.410Z,45.00
2023-04-28T05:52:17.377Z,45.00
2023-04-28T05:53:17.396Z,45.00
2023-04-28T05:54:17.541Z,50.62
2023-04-28T05:55:17.441Z,50.62
2023-04-28T05:56:17.488Z,50.62
2023-04-28T05:57:17.409Z,50.62
2023-04-28T05:58:17.381Z,50.62
2023-04-28T05:59:17.534Z,50.62
2023-04-28T06:00:17.324Z,50.62
2023-04-28T06:01:17.421Z,50.62
2023-04-28T06:02:17.448Z,50.62
2023-04-28T06:03:17.408Z,50.62
2023-04-28T06:04:17.515Z,50.62
2023-04-28T06:05:17.760Z,50.62
2023-04-28T06:06:17.280Z,50.62
2023-04-28T06:07:17.232Z,56.25
2023-04-28T06:08:17.200Z,56.25
2023-04-28T06:09:17.474Z,56.25
2023-04-28T06:10:17.170Z,61.88
2023-04-28T06:11:17.190Z,61.88
2023-04-28T06:12:17.166Z,61.88
2023-04-28T06:13:17.145Z,67.50
2023-04-28T06:14:17.399Z,67.50
2023-04-28T06:15:17.115Z,67.50
2023-04-28T06:16:17.176Z,73.12
2023-04-28T06:17:17.133Z,73.12
2023-04-28T06:18:17.111Z,73.12
2023-04-28T06:19:17.075Z,73.12
2023-04-28T06:20:17.090Z,78.75
2023-04-28T06:21:17.073Z,78.75
2023-04-28T06:22:17.056Z,84.38
2023-04-28T06:23:17.068Z,84.38
2023-04-28T06:24:17.414Z,90.00
2023-04-28T06:25:17.013Z,90.00
2023-04-28T06:26:18.372Z,90.00
2023-04-28T06:27:16.997Z,90.00
2023-04-28T06:28:16.982Z,95.62
2023-04-28T06:29:16.988Z,95.62
2023-04-28T06:30:16.964Z,95.62
2023-04-28T06:31:17.079Z,101.25
2023-04-28T06:32:16.939Z,101.25
2023-04-28T06:33:16.924Z,101.25
2023-04-28T06:34:17.181Z,106.88
2023-04-28T06:35:16.912Z,106.88
2023-04-28T06:36:16.951Z,106.88
2023-04-28T06:37:16.911Z,106.88
2023-04-28T06:38:16.886Z,106.88
2023-04-28T06:39:16.856Z,106.88
2023-04-28T06:40:16.868Z,106.88
2023-04-28T06:41:16.868Z,106.88
2023-04-28T06:42:16.838Z,112.50
2023-04-28T06:43:16.808Z,112.50
2023-04-28T06:44:17.023Z,112.50
2023-04-28T06:45:16.786Z,118.12
2023-04-28T06:46:16.898Z,118.12
2023-04-28T06:47:16.764Z,118.12
2023-04-28T06:48:16.790Z,123.75
2023-04-28T06:49:16.758Z,123.75
2023-04-28T06:50:16.754Z,123.75
2023-04-28T06:51:17.375Z,123.75
2023-04-28T06:52:16.751Z,123.75
2023-04-28T06:53:16.733Z,123.75
2023-04-28T06:54:17.037Z,123.75
2023-04-28T06:55:16.695Z,123.75
2023-04-28T06:56:16.680Z,112.50
2023-04-28T06:57:16.706Z,118.12
2023-04-28T06:58:16.654Z,112.50
2023-04-28T06:59:16.657Z,112.50
2023-04-28T07:00:16.641Z,106.88
2023-04-28T07:01:16.723Z,101.25
2023-04-28T07:02:16.748Z,95.62
2023-04-28T07:03:16.718Z,95.62
2023-04-28T07:04:17.150Z,90.00
2023-04-28T07:05:16.840Z,90.00
2023-04-28T07:06:16.589Z,84.38
2023-04-28T07:07:16.574Z,84.38
2023-04-28T07:08:16.555Z,84.38
2023-04-28T07:09:16.536Z,90.00
2023-04-28T07:10:16.559Z,84.38
2023-04-28T07:11:16.535Z,84.38
2023-04-28T07:12:16.533Z,90.00
2023-04-28T07:13:16.492Z,84.38
2023-04-28T07:14:16.778Z,84.38
2023-04-28T07:15:16.472Z,84.38
2023-04-28T07:16:16.546Z,84.38
2023-04-28T07:17:16.461Z,84.38
2023-04-28T07:18:16.508Z,84.38
2023-04-28T07:19:16.543Z,84.38
2023-04-28T07:20:16.444Z,84.38
2023-04-28T07:21:16.420Z,84.38
2023-04-28T07:22:16.423Z,84.38
2023-04-28T07:23:16.391Z,84.38
2023-04-28T07:24:16.539Z,84.38
2023-04-28T07:25:16.388Z,84.38
2023-04-28T07:26:16.386Z,84.38
2023-04-28T07:27:16.349Z,84.38
2023-04-28T07:28:16.339Z,90.00
2023-04-28T07:29:16.325Z,90.00
2023-04-28T07:30:27.212Z,95.62
2023-04-28T07:31:16.372Z,101.25
2023-04-28T07:32:16.466Z,101.25
2023-04-28T07:33:16.298Z,101.25
2023-04-28T07:34:16.602Z,106.88
2023-04-28T07:35:16.296Z,106.88
2023-04-28T07:36:16.288Z,112.50
2023-04-28T07:37:16.249Z,112.50
2023-04-28T07:38:16.250Z,118.12
2023-04-28T07:39:16.260Z,123.75
2023-04-28T07:40:16.214Z,123.75
2023-04-28T07:41:16.255Z,129.38
2023-04-28T07:42:16.187Z,129.38
2023-04-28T07:43:16.174Z,129.38
2023-04-28T07:44:16.634Z,135.00
2023-04-28T07:45:16.187Z,135.00
2023-04-28T07:46:16.185Z,140.62
2023-04-28T07:47:16.165Z,140.62
2023-04-28T07:48:16.171Z,140.62
2023-04-28T07:49:16.127Z,146.25
2023-04-28T07:50:16.101Z,146.25
2023-04-28T07:51:16.110Z,151.88
2023-04-28T07:52:16.102Z,151.88
2023-04-28T07:53:16.064Z,157.50
2023-04-28T07:54:16.355Z,157.50
2023-04-28T07:55:16.068Z,157.50
2023-04-28T07:56:16.090Z,157.50
2023-04-28T07:57:16.034Z,163.12
2023-04-28T07:58:16.047Z,163.12
2023-04-28T07:59:16.003Z,163.12
2023-04-28T08:00:16.035Z,168.75
2023-04-28T08:01:16.018Z,174.38
2023-04-28T08:02:16.051Z,174.38
2023-04-28T08:03:16.265Z,174.38
2023-04-28T08:04:16.363Z,174.38
2023-04-28T08:05:16.150Z,174.38
2023-04-28T08:06:15.954Z,174.38
2023-04-28T08:07:15.950Z,180.00
2023-04-28T08:08:15.917Z,185.62
2023-04-28T08:09:15.891Z,185.62
2023-04-28T08:10:15.892Z,191.25
2023-04-28T08:11:15.940Z,191.25
2023-04-28T08:12:15.883Z,191.25
2023-04-28T08:13:15.876Z,191.25
2023-04-28T08:14:16.082Z,191.25
2023-04-28T08:15:17.311Z,191.25
2023-04-28T08:16:15.903Z,185.62
2023-04-28T08:17:15.818Z,180.00
2023-04-28T08:18:15.893Z,185.62
2023-04-28T08:19:15.794Z,191.25
2023-04-28T08:20:15.788Z,213.75
2023-04-28T08:21:15.820Z,241.88
2023-04-28T08:22:15.788Z,410.62
2023-04-28T08:23:15.758Z,517.50
2023-04-28T08:24:15.955Z,433.12
2023-04-28T08:25:15.732Z,483.75
2023-04-28T08:26:15.744Z,556.88
2023-04-28T08:27:15.704Z,489.38
2023-04-28T08:28:15.720Z,416.25
2023-04-28T08:29:15.686Z,376.88
2023-04-28T08:30:15.683Z,421.88
2023-04-28T08:31:15.729Z,489.38
2023-04-28T08:32:15.700Z,523.12
2023-04-28T08:33:15.672Z,540.00
2023-04-28T08:34:16.658Z,568.12
2023-04-28T08:35:15.629Z,646.88
2023-04-28T08:36:15.670Z,742.50
2023-04-28T08:37:15.598Z,624.38
2023-04-28T08:38:15.637Z,607.50
2023-04-28T08:39:15.653Z,613.12
2023-04-28T08:40:15.568Z,663.75
2023-04-28T08:41:15.579Z,765.00
2023-04-28T08:42:15.610Z,736.88
2023-04-28T08:43:15.540Z,680.62
2023-04-28T08:44:15.691Z,714.38
2023-04-28T08:45:15.535Z,697.50
2023-04-28T08:46:15.560Z,590.62
2023-04-28T08:47:15.502Z,478.12
2023-04-28T08:48:15.479Z,472.50
2023-04-28T08:49:15.543Z,450.00
2023-04-28T08:50:15.479Z,528.75
2023-04-28T08:51:15.484Z,551.25
2023-04-28T08:52:15.437Z,596.25
2023-04-28T08:53:15.442Z,523.12
2023-04-28T08:54:26.201Z,545.62
2023-04-28T08:55:15.423Z,506.25
2023-04-28T08:56:15.409Z,545.62
2023-04-28T08:57:15.399Z,596.25
2023-04-28T08:58:15.419Z,568.12
2023-04-28T08:59:15.387Z,545.62
2023-04-28T09:00:15.363Z,500.62
2023-04-28T09:01:15.376Z,478.12
2023-04-28T09:02:15.413Z,472.50
2023-04-28T09:03:15.450Z,371.25
2023-04-28T09:04:15.602Z,337.50
2023-04-28T09:05:15.758Z,495.00
2023-04-28T09:06:15.315Z,607.50
2023-04-28T09:07:15.307Z,810.00
2023-04-28T09:08:15.281Z,798.75
2023-04-28T09:09:15.254Z,725.62
2023-04-28T09:10:15.256Z,686.25
2023-04-28T09:11:15.290Z,579.38
2023-04-28T09:12:15.240Z,573.75
2023-04-28T09:13:15.245Z,545.62
2023-04-28T09:14:15.483Z,624.38
2023-04-28T09:15:15.198Z,624.38
2023-04-28T09:16:15.216Z,630.00
2023-04-28T09:17:15.200Z,562.50
2023-04-28T09:18:15.292Z,523.12
2023-04-28T09:19:15.176Z,585.00
2023-04-28T09:20:15.162Z,652.50
2023-04-28T09:21:15.132Z,635.62
2023-04-28T09:22:26.404Z,573.75
2023-04-28T09:23:15.131Z,590.62
2023-04-28T09:24:15.359Z,551.25
2023-04-28T09:25:15.112Z,568.12
2023-04-28T09:26:15.188Z,545.62
2023-04-28T09:27:15.092Z,427.50
2023-04-28T09:28:15.095Z,303.75
2023-04-28T09:29:15.076Z,270.00
2023-04-28T09:30:15.044Z,264.38
2023-04-28T09:31:15.033Z,270.00
2023-04-28T09:32:15.202Z,281.25
2023-04-28T09:33:15.048Z,388.12
2023-04-28T09:34:18.039Z,455.62
2023-04-28T09:35:14.987Z,416.25
2023-04-28T09:36:15.009Z,388.12
2023-04-28T09:37:15.123Z,433.12
2023-04-28T09:38:14.970Z,483.75
2023-04-28T09:39:14.949Z,343.12
2023-04-28T09:40:14.957Z,303.75
2023-04-28T09:41:14.973Z,326.25
2023-04-28T09:42:14.936Z,315.00
2023-04-28T09:43:21.194Z,528.75
2023-04-28T09:44:15.078Z,573.75
2023-04-28T09:45:14.909Z,618.75
2023-04-28T09:46:15.002Z,607.50
2023-04-28T09:47:14.880Z,624.38
2023-04-28T09:48:14.901Z,573.75
2023-04-28T09:49:14.838Z,624.38
2023-04-28T09:50:15.171Z,601.88
2023-04-28T09:51:14.850Z,540.00
2023-04-28T09:52:14.881Z,568.12
2023-04-28T09:53:14.816Z,545.62
2023-04-28T09:54:14.828Z,483.75
2023-04-28T09:55:14.789Z,433.12
2023-04-28T09:56:14.807Z,320.62
2023-04-28T09:57:14.769Z,371.25
2023-04-28T09:58:14.761Z,433.12
2023-04-28T09:59:14.783Z,500.62
2023-04-28T10:00:14.957Z,540.00
2023-04-28T10:01:14.830Z,455.62
2023-04-28T10:02:36.263Z,331.88
2023-04-28T10:03:14.840Z,298.12
2023-04-28T10:04:14.809Z,421.88
2023-04-28T10:05:14.837Z,551.25
2023-04-28T10:06:14.739Z,506.25
2023-04-28T10:07:14.695Z,517.50
2023-04-28T10:08:14.665Z,585.00
2023-04-28T10:09:14.652Z,551.25
2023-04-28T10:10:15.009Z,472.50
2023-04-28T10:11:14.685Z,320.62
2023-04-28T10:12:14.629Z,275.62
2023-04-28T10:13:14.739Z,281.25
2023-04-28T10:14:14.667Z,286.88
2023-04-28T10:15:14.572Z,489.38
2023-04-28T10:16:14.654Z,601.88
2023-04-28T10:17:14.553Z,596.25
2023-04-28T10:18:14.596Z,658.12
2023-04-28T10:19:14.555Z,624.38
2023-04-28T10:20:14.577Z,652.50
2023-04-28T10:21:14.589Z,669.38
2023-04-28T10:22:14.581Z,596.25
2023-04-28T10:23:14.499Z,573.75
2023-04-28T10:24:14.509Z,652.50
2023-04-28T10:25:14.523Z,635.62
2023-04-28T10:26:14.498Z,545.62
2023-04-28T10:27:14.509Z,517.50
2023-04-28T10:28:14.459Z,540.00
2023-04-28T10:29:14.439Z,618.75
2023-04-28T10:30:26.497Z,556.88
2023-04-28T10:31:14.505Z,466.88
2023-04-28T10:32:14.403Z,562.50
2023-04-28T10:33:14.477Z,613.12
2023-04-28T10:34:14.389Z,630.00
2023-04-28T10:35:14.380Z,596.25
2023-04-28T10:36:16.213Z,596.25
2023-04-28T10:37:14.487Z,601.88
2023-04-28T10:38:14.416Z,517.50
2023-04-28T10:39:14.381Z,461.25
2023-04-28T10:40:14.349Z,450.00
2023-04-28T10:41:14.341Z,354.38
2023-04-28T10:42:14.372Z,320.62
2023-04-28T10:43:14.548Z,315.00
2023-04-28T10:44:14.306Z,309.38
2023-04-28T10:45:14.306Z,315.00
2023-04-28T10:46:14.307Z,427.50
2023-04-28T10:47:14.265Z,483.75
2023-04-28T10:48:14.245Z,444.38
2023-04-28T10:49:14.307Z,438.75
2023-04-28T10:50:14.331Z,438.75
2023-04-28T10:51:14.210Z,489.38
2023-04-28T10:52:14.238Z,511.88
2023-04-28T10:53:14.209Z,596.25
2023-04-28T10:54:14.193Z,500.62
2023-04-28T10:55:22.227Z,405.00
2023-04-28T10:56:14.169Z,360.00
2023-04-28T10:57:14.205Z,343.12
2023-04-28T10:58:14.137Z,337.50
2023-04-28T10:59:14.140Z,337.50
2023-04-28T11:00:14.137Z,360.00
2023-04-28T11:01:14.296Z,421.88
2023-04-28T11:02:14.279Z,455.62
2023-04-28T11:03:15.629Z,483.75
2023-04-28T11:04:14.370Z,427.50
2023-04-28T11:05:14.865Z,360.00
2023-04-28T11:06:14.213Z,315.00
2023-04-28T11:07:14.118Z,320.62
2023-04-28T11:08:14.095Z,315.00
2023-04-28T11:09:14.086Z,354.38
2023-04-28T11:10:14.043Z,320.62
2023-04-28T11:11:14.100Z,556.88
2023-04-28T11:12:14.024Z,506.25
2023-04-28T11:13:14.019Z,365.62
2023-04-28T11:14:14.019Z,495.00
2023-04-28T11:15:14.065Z,540.00
2023-04-28T11:16:14.034Z,573.75
2023-04-28T11:17:14.042Z,663.75
2023-04-28T11:18:13.919Z,714.38
2023-04-28T11:19:13.922Z,686.25
2023-04-28T11:20:13.922Z,641.25
2023-04-28T11:21:13.928Z,641.25
2023-04-28T11:22:13.894Z,618.75
2023-04-28T11:23:14.892Z,450.00
2023-04-28T11:24:13.922Z,427.50
2023-04-28T11:25:13.890Z,382.50
2023-04-28T11:26:14.983Z,303.75
2023-04-28T11:27:13.913Z,275.62
2023-04-28T11:28:14.223Z,264.38
2023-04-28T11:29:13.932Z,258.75
2023-04-28T11:30:13.894Z,258.75
2023-04-28T11:31:13.918Z,258.75
2023-04-28T11:32:13.996Z,298.12
2023-04-28T11:33:13.836Z,343.12
2023-04-28T11:34:13.827Z,427.50
2023-04-28T11:35:13.795Z,331.88
2023-04-28T11:36:14.009Z,365.62
2023-04-28T11:37:13.847Z,275.62
2023-04-28T11:38:13.828Z,315.00
2023-04-28T11:39:13.794Z,253.12
2023-04-28T11:40:13.746Z,264.38
2023-04-28T11:41:13.769Z,241.88
2023-04-28T11:42:13.698Z,225.00
2023-04-28T11:43:14.351Z,225.00
2023-04-28T11:44:13.711Z,219.38
2023-04-28T11:45:13.700Z,225.00
2023-04-28T11:46:13.739Z,236.25
2023-04-28T11:47:13.647Z,225.00
2023-04-28T11:48:13.616Z,230.62
2023-04-28T11:49:13.595Z,236.25
2023-04-28T11:50:13.624Z,219.38
2023-04-28T11:51:13.609Z,219.38
2023-04-28T11:52:13.639Z,213.75
2023-04-28T11:53:13.549Z,202.50
2023-04-28T11:54:13.565Z,196.88
2023-04-28T11:55:13.530Z,191.25
2023-04-28T11:56:13.540Z,185.62
2023-04-28T11:57:13.529Z,180.00
2023-04-28T11:58:13.521Z,174.38
2023-04-28T11:59:13.536Z,174.38
2023-04-28T12:00:13.511Z,180.00
2023-04-28T12:01:13.543Z,180.00
2023-04-28T12:02:13.481Z,185.62
2023-04-28T12:03:13.660Z,185.62
2023-04-28T12:04:14.487Z,191.25
2023-04-28T12:05:13.499Z,196.88
2023-04-28T12:06:13.512Z,196.88
2023-04-28T12:07:13.514Z,202.50
2023-04-28T12:08:13.462Z,202.50
2023-04-28T12:09:13.451Z,208.12
2023-04-28T12:10:13.466Z,219.38
2023-04-28T12:11:13.410Z,230.62
2023-04-28T12:12:13.474Z,241.88
2023-04-28T12:13:13.445Z,253.12
2023-04-28T12:14:13.365Z,258.75
2023-04-28T12:15:13.567Z,320.62
2023-04-28T12:16:13.508Z,405.00
2023-04-28T12:17:13.590Z,517.50
2023-04-28T12:18:13.352Z,461.25
2023-04-28T12:19:13.313Z,545.62
2023-04-28T12:20:13.432Z,500.62
2023-04-28T12:21:13.334Z,478.12
2023-04-28T12:22:13.328Z,405.00
2023-04-28T12:23:13.518Z,354.38
2023-04-28T12:24:13.294Z,337.50
2023-04-28T12:25:13.312Z,376.88
2023-04-28T12:26:13.379Z,343.12
2023-04-28T12:27:13.286Z,421.88
2023-04-28T12:28:13.216Z,450.00
2023-04-28T12:29:13.274Z,444.38
2023-04-28T12:30:13.344Z,421.88
2023-04-28T12:31:15.168Z,421.88
2023-04-28T12:32:13.270Z,427.50
2023-04-28T12:33:13.194Z,466.88
2023-04-28T12:34:13.178Z,500.62
2023-04-28T12:35:13.162Z,433.12
2023-04-28T12:36:13.210Z,421.88
2023-04-28T12:37:13.253Z,365.62
2023-04-28T12:38:14.244Z,331.88
2023-04-28T12:39:13.136Z,326.25
2023-04-28T12:40:13.093Z,292.50
2023-04-28T12:41:13.129Z,281.25
2023-04-28T12:42:13.090Z,264.38
2023-04-28T12:43:13.068Z,258.75
2023-04-28T12:44:13.065Z,253.12
2023-04-28T12:45:13.050Z,247.50
2023-04-28T12:46:13.109Z,258.75
2023-04-28T12:47:13.879Z,264.38
2023-04-28T12:48:13.107Z,253.12
2023-04-28T12:49:13.113Z,236.25